Talladega, Alabama
Current Conditions -  °F | °C
As of 8:55 PM on Sunday 23 Nov 2014 (Local Time) from KASN Reporting Station
Overcast Overcast  
Wind Chill: 64°   Ceiling: 2500
Heat Index: 64°   Visibility: 10mi
Dew Point: 58°   Wind: 13mph
Humidity: 81%   Direction: 190°S
Pressure: 29.69"   Gusts: 18mph
Location:  33.43°N, 86.1°W
Report Text: KASN 240255Z AUTO 19011G16KT 10SM SCT018 OVC025 18/14 A2969 RMK AO2 LTG DSNT SE T01770144
Loading
Personal Weather Stations






























Interactive Weather Map New forecast layout! Learn more

10-Day Weather Forecast

Advertisements
Track Severe Weather on mobile